Search for airport 
image banner adimage banner adimage banner ad
image banner ad

NV98 - Caas

Located in Pahrump, United States

ICAO - NV98, IATA -

Data provided by Airmate  

General information

Coordinates: N36°9'1" W115°53'59"
Elevation is 2800 feet MSL.
 
View others Airports in Nevada

Operational data

Special qualification required
Current time UTC:
Current local time:
Weather at : KINS - Creech Afb ( 52 km )
METAR: KINS 152058Z AUTO 05003KT 10SM FEW095 SCT160 SCT180 BKN200 40/M10 A2997 RMK AO2 SLP091 T04011096 57010 $
TAF: TAF KINS 152104Z 1521/1703 10012KT 9999 BKN200 QNH2995INS BECMG 1521/1522 23012G25KT 9999 BKN200 510009 QNH2993INS BECMG 1602/1603 23012KT 9999 BKN200 QNH2993INS BECMG 1606/1607 VRB06KT 9999 FEW200 QNH2997INS BECMG 1617/1618 09012KT 9999 SCT180 QNH2995INS BECMG 1619/1620 24010G22KT 9999 BKN180 QNH2988INS TX42/1521Z TN26/1613Z
View NOTAMs / SUP AIP / TFR affecting this airport [VIEW]
Communications frequencies: [VIEW]

Runways:

RWY identifierQFULength (ft)Width (ft)SurfaceLDA (ft)
08180040OTHER
26180040OTHER

Airport contact information

Address: Pahrump United States

Satellite view of NV98